^^
Station Historical Data
Daily Summary for March 14, 2018 Units:  English    Metric   Both
« Previous Day
Next Day »
Daily Weekly Monthly Yearly Custom
  High: Low: Average:
Temperature: TemperatureC °F -7.1 °F -2.3 °F
Dew Point: DewpointC °F -8.8 °F -4.2 °F
Humidity: Humidity% 77% 87%
Wind Speed: WindSpeedKMHmph 0.0mph 7.8mph
Wind Gust: WindSpeedGustKMHmph - -
Wind- - NW
Pressure: PressurehPa in 991.1 in -
Precipitation: 0.3 in    
Historical Graphs
 
 
Tabular Data for March 14, 2018
Time Temperature Dew Point Pressure Wind Wind Speed Wind Gust Humidity Rainfall Rate (Hourly) solar Conditions
TemperatureC °F DewpointC °F PressurehPa in Calm     Humidity% HourlyPrecipMM in SoftwareType W/m2 Conditions
00:01 1.7 °F 0.8 °F 991.1 in NNW 5.1 mph 9.3 mph 94% 0.0 in WeatherDisplay:10.37 W/m2 -DZ
00:07 1.6 °F 0.7 °F 991.1 in NNW 2.1 mph 13.0 mph 94% 0.0 in WeatherDisplay:10.37 W/m2 -DZ
00:12 1.6 °F 0.7 °F 991.4 in NNW 5.6 mph 13.0 mph 94% 0.0 in WeatherDisplay:10.37 W/m2 -DZ
00:17 1.5 °F 0.7 °F 991.4 in NNW 4.5 mph 9.7 mph 94% 0.0 in WeatherDisplay:10.37 W/m2 -DZ
00:22 1.4 °F 0.6 °F 991.4 in NNW 5.6 mph 13.0 mph 94% 0.0 in WeatherDisplay:10.37 W/m2 -DZ
00:27 1.3 °F 0.5 °F 991.4 in NNW 9.0 mph 14.8 mph 94% 0.3 in WeatherDisplay:10.37 W/m2 -DZ
00:32 1.2 °F 0.4 °F 991.4 in NNW 3.4 mph 9.3 mph 94% 0.3 in WeatherDisplay:10.37 W/m2 -DZ
00:37 1.2 °F 0.3 °F 991.8 in NNW 2.6 mph 13.0 mph 94% 0.3 in WeatherDisplay:10.37 W/m2 -DZ
00:42 1.1 °F 0.2 °F 991.8 in NNW 8.7 mph 14.5 mph 94% 0.3 in WeatherDisplay:10.37 W/m2 -DZ
00:47 1.1 °F 0.2 °F 991.8 in North 7.4 mph 14.8 mph 94% 0.3 in WeatherDisplay:10.37 W/m2 -DZ
00:52 1.0 °F 0.2 °F 992.1 in NNW 2.4 mph 6.4 mph 94% 0.3 in WeatherDisplay:10.37 W/m2 -DZ
00:57 1.0 °F 0.2 °F 992.1 in NNW 9.7 mph 14.5 mph 94% 0.3 in WeatherDisplay:10.37 W/m2 -DZ
01:02 0.9 °F 0.1 °F 992.1 in NNW 7.6 mph 14.8 mph 94% 0.3 in WeatherDisplay:10.37 W/m2 -DZ
01:07 0.9 °F 0.1 °F 992.1 in NNW 9.2 mph 16.1 mph 94% 0.3 in WeatherDisplay:10.37 W/m2 -DZ
01:13 0.9 °F 0.1 °F 992.1 in NNW 2.7 mph 5.6 mph 94% 0.3 in WeatherDisplay:10.37 W/m2 -DZ
01:18 0.9 °F 0.1 °F 992.4 in NNW 8.5 mph 14.8 mph 94% 0.3 in WeatherDisplay:10.37 W/m2 -DZ
01:23 0.9 °F 0.1 °F 992.4 in NNW 4.8 mph 13.0 mph 94% 0.3 in WeatherDisplay:10.37 W/m2 -DZ
01:28 0.8 °F 0.0 °F 992.4 in NW 3.7 mph 14.8 mph 94% 0.0 in WeatherDisplay:10.37 W/m2 -DZ
01:33 0.8 °F 0.0 °F 992.4 in NNW 6.4 mph 9.3 mph 94% 0.0 in WeatherDisplay:10.37 W/m2 -DZ
01:38 0.8 °F -0.1 °F 992.4 in North 5.8 mph 13.0 mph 94% 0.0 in WeatherDisplay:10.37 W/m2 -DZ
01:43 0.8 °F -0.1 °F 992.4 in NNW 7.4 mph 13.0 mph 94% 0.0 in WeatherDisplay:10.37 W/m2 -DZ
01:48 0.7 °F -0.1 °F 992.8 in NNW 6.3 mph 9.7 mph 94% 0.0 in WeatherDisplay:10.37 W/m2 -DZ
01:53 0.7 °F -0.2 °F 992.8 in NNW 8.2 mph 14.8 mph 94% 0.0 in WeatherDisplay:10.37 W/m2 -DZ
01:58 0.6 °F -0.2 °F 992.8 in NNW 2.6 mph 9.3 mph 94% 0.0 in WeatherDisplay:10.37 W/m2 -DZ
02:03 0.6 °F -0.2 °F 992.8 in NNW 4.7 mph 9.7 mph 94% 0.0 in WeatherDisplay:10.37 W/m2 -DZ
02:08 0.6 °F -0.3 °F 992.8 in North 4.0 mph 16.7 mph 94% 0.0 in WeatherDisplay:10.37 W/m2 -DZ
02:13 0.5 °F -0.3 °F 992.8 in North 10.0 mph 16.7 mph 94% 0.0 in WeatherDisplay:10.37 W/m2 -DZ
02:18 0.4 °F -0.4 °F 992.8 in North 9.7 mph 18.5 mph 94% 0.0 in WeatherDisplay:10.37 W/m2 -DZ
02:24 0.4 °F -0.4 °F 993.1 in North 8.5 mph 13.0 mph 94% 0.0 in WeatherDisplay:10.37 W/m2 -DZ
02:29 0.3 °F -0.5 °F 993.1 in NNW 8.2 mph 14.8 mph 94% 0.0 in WeatherDisplay:10.37 W/m2 -DZ
02:34 0.3 °F -0.6 °F 993.1 in NW 6.3 mph 13.0 mph 94% 0.0 in WeatherDisplay:10.37 W/m2 -DZ
02:39 0.3 °F -0.6 °F 993.1 in North 7.2 mph 13.0 mph 94% 0.0 in WeatherDisplay:10.37 W/m2 -DZ
02:44 0.3 °F -0.6 °F 993.1 in NW 8.4 mph 16.7 mph 94% 0.0 in WeatherDisplay:10.37 W/m2 -RA
02:49 0.3 °F -0.6 °F 993.1 in NNW 7.7 mph 16.7 mph 94% 0.0 in WeatherDisplay:10.37 W/m2 -RA
02:54 0.2 °F -0.6 °F 993.5 in NW 10.1 mph 16.7 mph 94% 0.0 in WeatherDisplay:10.37 W/m2 -RA
02:59 0.2 °F -0.7 °F 993.5 in NNW 8.0 mph 18.5 mph 94% 0.0 in WeatherDisplay:10.37 W/m2 -RA
03:04 0.1 °F -0.8 °F 993.5 in NNW 12.7 mph 22.2 mph 94% 0.0 in WeatherDisplay:10.37 W/m2 -RA
03:09 -0.1 °F -0.9 °F 993.5 in NW 6.1 mph 18.5 mph 94% 0.0 in WeatherDisplay:10.37 W/m2 -RA
03:14 -0.1 °F -0.9 °F 993.5 in NNW 8.4 mph 19.3 mph 94% 0.0 in WeatherDisplay:10.37 W/m2 -RA
03:19 -0.2 °F -1.0 °F 993.8 in NNW 9.5 mph 14.8 mph 94% 0.0 in WeatherDisplay:10.37 W/m2 -RA
03:24 -0.2 °F -1.0 °F 993.8 in NNW 11.9 mph 22.2 mph 94% 0.0 in WeatherDisplay:10.37 W/m2 -RA
03:29 -0.2 °F -1.0 °F 993.8 in NW 8.0 mph 16.1 mph 94% 0.0 in WeatherDisplay:10.37 W/m2 -RA
03:35 -0.3 °F -1.1 °F 994.1 in NNW 6.3 mph 13.0 mph 94% 0.0 in WeatherDisplay:10.37 W/m2 -RA
03:40 -0.3 °F -1.2 °F 994.1 in NNW 1.6 mph 6.4 mph 94% 0.0 in WeatherDisplay:10.37 W/m2 -SN
03:45 -0.3 °F -1.2 °F 994.1 in WNW 8.4 mph 12.9 mph 94% 0.0 in WeatherDisplay:10.37 W/m2 -SN
03:50 -0.4 °F -1.2 °F 994.1 in NNW 6.3 mph 13.0 mph 94% 0.0 in WeatherDisplay:10.37 W/m2 -SN
03:55 -0.4 °F -1.3 °F 994.5 in WNW 13.7 mph 24.1 mph 94% 0.0 in WeatherDisplay:10.37 W/m2 -SN
04:00 -0.5 °F -1.3 °F 994.5 in NW 9.0 mph 14.8 mph 94% 0.0 in WeatherDisplay:10.37 W/m2 -SN
04:05 -0.6 °F -1.4 °F 994.5 in NNW 10.3 mph 18.5 mph 94% 0.0 in WeatherDisplay:10.37 W/m2 -SN
04:10 -0.6 °F -1.4 °F 994.5 in NNW 0.3 mph 13.0 mph 94% 0.0 in WeatherDisplay:10.37 W/m2 -SN
04:15 -0.6 °F -1.4 °F 994.8 in North 7.6 mph 16.1 mph 94% 0.0 in WeatherDisplay:10.37 W/m2 -SN
04:20 -0.6 °F -1.4 °F 994.8 in NNW 8.7 mph 17.7 mph 94% 0.0 in WeatherDisplay:10.37 W/m2 -SN
04:25 -0.6 °F -1.4 °F 994.8 in NW 6.1 mph 9.3 mph 94% 0.0 in WeatherDisplay:10.37 W/m2 -SN
04:30 -0.6 °F -1.4 °F 994.8 in North 9.5 mph 17.7 mph 94% 0.0 in WeatherDisplay:10.37 W/m2 -SN
04:36 -0.6 °F -1.4 °F 994.8 in NNW 7.6 mph 14.8 mph 94% 0.0 in WeatherDisplay:10.37 W/m2 -SN
04:41 -0.6 °F -1.4 °F 995.1 in NNW 9.7 mph 19.3 mph 94% 0.0 in WeatherDisplay:10.37 W/m2 -SN
04:46 -0.7 °F -1.5 °F 995.1 in NNW 9.8 mph 19.3 mph 94% 0.0 in WeatherDisplay:10.37 W/m2 -SN
04:51 -0.7 °F -1.5 °F 995.1 in North 11.1 mph 19.3 mph 94% 0.0 in WeatherDisplay:10.37 W/m2 -SN
04:56 -0.7 °F -1.6 °F 995.5 in NW 9.5 mph 19.3 mph 94% 0.0 in WeatherDisplay:10.37 W/m2 -SN
05:01 -0.8 °F -1.6 °F 995.5 in NNW 3.9 mph 16.7 mph 94% 0.0 in WeatherDisplay:10.37 W/m2 -SN
05:06 -0.8 °F -1.6 °F 995.5 in North 7.6 mph 14.8 mph 94% 0.0 in WeatherDisplay:10.37 W/m2 -SN
05:11 -0.8 °F -1.6 °F 995.8 in North 10.3 mph 18.5 mph 94% 0.0 in WeatherDisplay:10.37 W/m2 -SN
05:16 -0.8 °F -1.7 °F 995.8 in NNW 15.9 mph 24.1 mph 94% 0.0 in WeatherDisplay:10.37 W/m2 -SN
05:21 -0.8 °F -1.8 °F 995.8 in WNW 4.5 mph 16.1 mph 93% 0.0 in WeatherDisplay:10.37 W/m2 -SN
05:26 -0.8 °F -1.8 °F 995.8 in WNW 7.6 mph 12.9 mph 93% 0.0 in WeatherDisplay:10.37 W/m2 -SN
05:31 -0.9 °F -1.9 °F 996.2 in West 3.5 mph 16.1 mph 93% 0.0 in WeatherDisplay:10.37 W/m2 -SN
05:36 -0.9 °F -1.8 °F 996.2 in NNW 10.8 mph 19.3 mph 94% 0.0 in WeatherDisplay:10.37 W/m2 -SN
05:41 -1.1 °F -1.9 °F 996.2 in NNW 8.4 mph 18.5 mph 94% 0.0 in WeatherDisplay:10.37 W/m2 -SN
05:47 -1.1 °F -2.1 °F 996.2 in NNW 8.4 mph 18.5 mph 93% 0.0 in WeatherDisplay:10.37 W/m2 -SN
05:52 -1.1 °F -2.1 °F 996.5 in NNW 16.9 mph 22.2 mph 93% 0.0 in WeatherDisplay:10.37 W/m2 -SN
05:57 -1.2 °F -2.2 °F 996.5 in NW 13.0 mph 18.5 mph 93% 0.0 in WeatherDisplay:10.37 W/m2 -SN
06:02 -1.2 °F -2.2 °F 996.5 in NNW 13.0 mph 25.7 mph 93% 0.0 in WeatherDisplay:10.37 W/m2 -SN
06:07 -1.2 °F -2.2 °F 996.5 in North 6.8 mph 19.3 mph 93% 0.0 in WeatherDisplay:10.37 W/m2 -SN
06:12 -1.2 °F -2.2 °F 996.8 in NW 5.0 mph 13.0 mph 93% 0.0 in WeatherDisplay:10.37 W/m2 -SN
06:17 -1.2 °F -2.2 °F 996.8 in NNW 3.2 mph 7.4 mph 93% 0.0 in WeatherDisplay:10.37 W/m2 -SN
06:22 -1.2 °F -2.2 °F 996.8 in NNW 5.1 mph 11.1 mph 93% 0.0 in WeatherDisplay:10.37 W/m2 -SN
06:27 -1.3 °F -2.3 °F 996.8 in WNW 5.0 mph 14.8 mph 93% 0.0 in WeatherDisplay:10.37 W/m2 -SN
06:32 -1.3 °F -2.3 °F 997.2 in North 11.7 mph 16.1 mph 93% 0.0 in WeatherDisplay:10.37 W/m2 -SN
06:37 -1.3 °F -2.3 °F 997.2 in NNW 9.5 mph 20.9 mph 93% 0.0 in WeatherDisplay:10.37 W/m2 -SN
06:42 -1.4 °F -2.4 °F 997.2 in NNW 10.5 mph 18.5 mph 93% 0.0 in WeatherDisplay:10.37 W/m2 BKN
06:47 -1.4 °F -2.4 °F 997.2 in NW 1.4 mph 5.6 mph 93% 0.0 in WeatherDisplay:10.37 W/m2 BKN
06:53 -1.4 °F -2.4 °F 997.2 in NNW 4.0 mph 14.8 mph 93% 0.0 in WeatherDisplay:10.37 W/m2 BKN
06:58 -1.6 °F -2.6 °F 997.5 in NNW 7.2 mph 18.5 mph 93% 0.0 in WeatherDisplay:10.37 W/m2 BKN
07:03 -1.6 °F -2.6 °F 997.5 in NNW 6.0 mph 16.7 mph 93% 0.0 in WeatherDisplay:10.37 W/m2 BKN
07:08 -1.6 °F -2.6 °F 997.9 in WNW 3.1 mph 7.4 mph 93% 0.0 in WeatherDisplay:10.37 W/m2 BKN
07:13 -1.7 °F -2.7 °F 997.9 in NNW 11.1 mph 16.7 mph 93% 0.0 in WeatherDisplay:10.37 W/m2 BKN
07:18 -1.7 °F -2.8 °F 997.9 in NNW 7.2 mph 19.3 mph 92% 0.0 in WeatherDisplay:10.37 W/m2 BKN
07:23 -1.7 °F -2.8 °F 997.9 in North 11.9 mph 20.4 mph 92% 0.0 in WeatherDisplay:10.37 W/m2 BKN
07:28 -1.8 °F -2.8 °F 998.2 in NNW 7.2 mph 18.5 mph 93% 0.0 in WeatherDisplay:10.37 W/m2 BKN
07:33 -1.8 °F -2.8 °F 998.2 in NNW 7.2 mph 22.5 mph 93% 0.0 in WeatherDisplay:10.37 W/m2 BKN
07:38 -1.8 °F -2.9 °F 998.2 in NNW 8.8 mph 18.5 mph 92% 0.0 in WeatherDisplay:10.37 W/m2 BKN
07:43 -1.8 °F -2.9 °F 998.5 in NNW 11.1 mph 18.5 mph 92% 0.0 in WeatherDisplay:10.37 W/m2 BKN
07:48 -1.8 °F -2.9 °F 998.5 in NNW 9.0 mph 19.3 mph 92% 0.0 in WeatherDisplay:10.37 W/m2 BKN
07:53 -1.8 °F -2.9 °F 998.5 in NNW 10.5 mph 24.1 mph 92% 0.0 in WeatherDisplay:10.37 W/m2 BKN
07:59 -1.8 °F -2.9 °F 998.5 in NNW 8.2 mph 24.1 mph 92% 0.0 in WeatherDisplay:10.37 W/m2 BKN
08:04 -1.8 °F -2.9 °F 998.9 in North 8.8 mph 19.3 mph 92% 0.0 in WeatherDisplay:10.37 W/m2 BKN
08:09 -1.8 °F -2.9 °F 998.9 in West 11.4 mph 17.7 mph 92% 0.0 in WeatherDisplay:10.37 W/m2 BKN
08:14 -1.8 °F -2.9 °F 998.9 in NNW 5.3 mph 7.4 mph 92% 0.0 in WeatherDisplay:10.37 W/m2 BKN
08:19 -1.8 °F -2.9 °F 998.9 in NNW 7.7 mph 8.0 mph 92% 0.0 in WeatherDisplay:10.37 W/m2 BKN
08:24 -1.8 °F -2.9 °F 999.2 in NNW 6.9 mph 9.7 mph 92% 0.0 in WeatherDisplay:10.37 W/m2 BKN
08:29 -1.9 °F -3.0 °F 999.2 in West 8.8 mph 14.8 mph 92% 0.0 in WeatherDisplay:10.37 W/m2 BKN
08:34 -1.9 °F -3.0 °F 999.2 in NW 10.6 mph 25.7 mph 92% 0.0 in WeatherDisplay:10.37 W/m2 BKN
08:39 -1.9 °F -3.1 °F 999.2 in NNW 11.9 mph 18.5 mph 92% 0.0 in WeatherDisplay:10.37 W/m2 BKN
08:44 -1.9 °F -3.1 °F 999.5 in NNW 10.3 mph 18.5 mph 92% 0.0 in WeatherDisplay:10.37 W/m2 BKN
08:49 -1.9 °F -3.2 °F 999.5 in NNW 8.2 mph 18.5 mph 91% 0.0 in WeatherDisplay:10.37 W/m2 BKN
08:54 -2.0 °F -3.3 °F 999.9 in North 7.6 mph 18.5 mph 91% 0.0 in WeatherDisplay:10.37 W/m2 BKN
08:59 -2.0 °F -3.3 °F 999.9 in NW 4.3 mph 7.4 mph 91% 0.0 in WeatherDisplay:10.37 W/m2 BKN
09:04 -2.0 °F -3.3 °F 999.9 in WNW 5.0 mph 9.3 mph 91% 0.0 in WeatherDisplay:10.37 W/m2 BKN
09:10 -2.1 °F -3.3 °F 999.9 in NNW 11.1 mph 18.5 mph 91% 0.0 in WeatherDisplay:10.37 W/m2 BKN
09:15 -2.0 °F -3.3 °F 1000.2 in NNW 7.2 mph 13.0 mph 91% 0.0 in WeatherDisplay:10.37 W/m2 BKN
09:20 -2.1 °F -3.3 °F 1000.2 in NNW 15.3 mph 24.1 mph 91% 0.0 in WeatherDisplay:10.37 W/m2 BKN
09:25 -2.0 °F -3.3 °F 1000.2 in WNW 12.1 mph 18.5 mph 91% 0.0 in WeatherDisplay:10.37 W/m2 BKN
09:30 -1.9 °F -3.2 °F 1000.6 in North 4.2 mph 14.5 mph 91% 0.0 in WeatherDisplay:10.37 W/m2 BKN
09:35 -2.0 °F -3.4 °F 1000.6 in WNW 3.9 mph 11.3 mph 90% 0.0 in WeatherDisplay:10.37 W/m2 BKN
09:40 -2.1 °F -3.6 °F 1000.6 in West 9.3 mph 18.5 mph 89% 0.0 in WeatherDisplay:10.37 W/m2 BKN
09:45 -2.1 °F -3.7 °F 1000.9 in NNW 13.2 mph 20.4 mph 89% 0.0 in WeatherDisplay:10.37 W/m2 BKN
09:50 -1.9 °F -3.5 °F 1000.9 in NNW 9.3 mph 16.7 mph 89% 0.0 in WeatherDisplay:10.37 W/m2 BKN
09:55 -1.7 °F -3.3 °F 1000.9 in NNW 6.9 mph 14.8 mph 89% 0.0 in WeatherDisplay:10.37 W/m2 BKN
10:00 -1.7 °F -3.4 °F 1001.2 in WNW 12.1 mph 25.9 mph 88% 0.0 in WeatherDisplay:10.37 W/m2 BKN
10:05 -1.9 °F -3.8 °F 1001.2 in NNW 7.7 mph 14.5 mph 87% 0.0 in WeatherDisplay:10.37 W/m2 BKN
10:10 -1.9 °F -3.7 °F 1001.2 in NW 5.1 mph 13.0 mph 88% 0.0 in WeatherDisplay:10.37 W/m2 BKN
10:16 -1.9 °F -3.7 °F 1001.2 in NNW 6.4 mph 18.5 mph 88% 0.0 in WeatherDisplay:10.37 W/m2 BKN
10:21 -1.9 °F -3.7 °F 1001.2 in NW 8.2 mph 14.5 mph 88% 0.0 in WeatherDisplay:10.37 W/m2 BKN
10:26 -1.9 °F -3.5 °F 1001.6 in WNW 7.1 mph 22.5 mph 89% 0.0 in WeatherDisplay:10.37 W/m2 BKN
10:31 -2.1 °F -3.8 °F 1001.6 in North 11.3 mph 18.5 mph 88% 0.0 in WeatherDisplay:10.37 W/m2 BKN
10:36 -2.2 °F -3.9 °F 1001.6 in WNW 6.6 mph 11.3 mph 88% 0.0 in WeatherDisplay:10.37 W/m2 BKN
10:41 -2.3 °F -4.1 °F 1001.9 in NNW 11.3 mph 18.5 mph 88% 0.0 in WeatherDisplay:10.37 W/m2 BKN
10:46 -2.4 °F -4.0 °F 1001.9 in North 7.6 mph 14.8 mph 89% 0.0 in WeatherDisplay:10.37 W/m2 BKN
10:51 -2.6 °F -4.3 °F 1001.9 in NNW 10.8 mph 24.1 mph 88% 0.0 in WeatherDisplay:10.37 W/m2 BKN
10:56 -2.7 °F -4.4 °F 1002.3 in NNW 7.6 mph 20.4 mph 88% 0.0 in WeatherDisplay:10.37 W/m2 BKN
11:01 -2.7 °F -4.4 °F 1002.3 in NW 7.7 mph 16.7 mph 88% 0.0 in WeatherDisplay:10.37 W/m2 BKN
11:06 -2.8 °F -4.5 °F 1002.3 in North 11.3 mph 18.5 mph 88% 0.0 in WeatherDisplay:10.37 W/m2 BKN
11:11 -2.8 °F -4.6 °F 1002.6 in North 8.8 mph 18.5 mph 88% 0.0 in WeatherDisplay:10.37 W/m2 BKN
11:16 -2.9 °F -4.8 °F 1002.6 in NNW 12.7 mph 22.2 mph 87% 0.0 in WeatherDisplay:10.37 W/m2 BKN
11:22 -3.0 °F -4.7 °F 1002.9 in NNW 6.9 mph 13.0 mph 88% 0.0 in WeatherDisplay:10.37 W/m2 BKN
11:27 -3.1 °F -4.8 °F 1002.9 in WNW 12.9 mph 27.8 mph 88% 0.0 in WeatherDisplay:10.37 W/m2 BKN
11:32 -3.1 °F -4.8 °F 1002.9 in NW 9.2 mph 16.7 mph 88% 0.0 in WeatherDisplay:10.37 W/m2 BKN
11:37 -3.0 °F -4.8 °F 1002.9 in North 11.6 mph 16.1 mph 87% 0.0 in WeatherDisplay:10.37 W/m2 BKN
11:42 -3.0 °F -4.8 °F 1003.3 in NNW 8.7 mph 16.7 mph 87% 0.0 in WeatherDisplay:10.37 W/m2 BKN
11:47 -3.1 °F -4.9 °F 1003.3 in NNE 7.1 mph 20.4 mph 87% 0.0 in WeatherDisplay:10.37 W/m2 BKN
11:52 -3.1 °F -4.9 °F 1003.3 in NNW 8.4 mph 14.8 mph 87% 0.0 in WeatherDisplay:10.37 W/m2 BKN
11:57 -3.1 °F -4.9 °F 1003.3 in WNW 9.5 mph 14.8 mph 87% 0.0 in WeatherDisplay:10.37 W/m2 BKN
12:02 -3.1 °F -4.9 °F 1003.6 in North 12.6 mph 24.1 mph 87% 0.0 in WeatherDisplay:10.37 W/m2 BKN
12:07 -3.2 °F -5.0 °F 1003.6 in NNW 11.3 mph 20.4 mph 87% 0.0 in WeatherDisplay:10.37 W/m2 BKN
12:12 -3.1 °F -4.9 °F 1003.6 in NW 4.7 mph 18.5 mph 87% 0.0 in WeatherDisplay:10.37 W/m2 BKN
12:18 -3.1 °F -4.8 °F 1003.9 in NNW 9.7 mph 18.5 mph 88% 0.0 in WeatherDisplay:10.37 W/m2 BKN
12:23 -3.0 °F -4.8 °F 1003.9 in NNW 6.4 mph 13.0 mph 87% 0.0 in WeatherDisplay:10.37 W/m2 BKN
12:28 -2.9 °F -4.9 °F 1003.9 in NW 5.8 mph 7.4 mph 86% 0.0 in WeatherDisplay:10.37 W/m2 BKN
12:33 -2.8 °F -4.9 °F 1003.9 in WNW 6.8 mph 24.1 mph 85% 0.0 in WeatherDisplay:10.37 W/m2 BKN
12:38 -2.7 °F -5.1 °F 1003.9 in West 9.0 mph 14.8 mph 84% 0.0 in WeatherDisplay:10.37 W/m2 BKN
12:43 -2.8 °F -5.2 °F 1003.9 in NNW 7.1 mph 16.7 mph 84% 0.0 in WeatherDisplay:10.37 W/m2 BKN
12:48 -2.8 °F -5.0 °F 1004.3 in West 5.0 mph 12.9 mph 85% 0.0 in WeatherDisplay:10.37 W/m2 BKN
12:53 -2.8 °F -4.9 °F 1004.3 in NNW 2.4 mph 5.6 mph 85% 0.0 in WeatherDisplay:10.37 W/m2 BKN
12:58 -2.8 °F -5.1 °F 1004.3 in NNW 10.8 mph 17.7 mph 84% 0.0 in WeatherDisplay:10.37 W/m2 BKN
13:03 -2.8 °F -4.9 °F 1004.3 in NNW 6.4 mph 11.1 mph 85% 0.0 in WeatherDisplay:10.37 W/m2 BKN
13:08 -2.8 °F -5.1 °F 1004.3 in North 6.4 mph 11.1 mph 84% 0.0 in WeatherDisplay:10.37 W/m2 BKN
13:14 -2.8 °F -5.1 °F 1004.6 in NW 13.8 mph 20.9 mph 84% 0.0 in WeatherDisplay:10.37 W/m2 BKN
13:19 -2.8 °F -5.3 °F 1004.6 in North 6.4 mph 17.7 mph 83% 0.0 in WeatherDisplay:10.37 W/m2 BKN
13:24 -2.8 °F -5.5 °F 1004.6 in North 9.2 mph 14.8 mph 82% 0.0 in WeatherDisplay:10.37 W/m2 BKN
13:29 -2.8 °F -5.5 °F 1004.6 in NW 9.8 mph 24.1 mph 82% 0.0 in WeatherDisplay:10.37 W/m2 BKN
13:34 -2.8 °F -5.3 °F 1004.6 in NW 9.0 mph 24.1 mph 83% 0.0 in WeatherDisplay:10.37 W/m2 BKN
13:39 -2.8 °F -5.3 °F 1005.0 in NNW 12.1 mph 18.5 mph 83% 0.0 in WeatherDisplay:10.37 W/m2 BKN
13:44 -2.7 °F -5.3 °F 1005.0 in WNW 6.8 mph 18.5 mph 82% 0.0 in WeatherDisplay:10.37 W/m2 BKN
13:49 -2.6 °F -5.3 °F 1005.0 in NNW 11.9 mph 20.9 mph 82% 0.0 in WeatherDisplay:10.37 W/m2 BKN
13:54 -2.7 °F -5.4 °F 1005.0 in NW 4.2 mph 9.3 mph 82% 0.0 in WeatherDisplay:10.37 W/m2 BKN
13:59 -2.7 °F -5.3 °F 1005.0 in WNW 6.1 mph 9.3 mph 82% 0.0 in WeatherDisplay:10.37 W/m2 BKN
14:04 -2.6 °F -5.3 °F 1005.3 in NNW 11.9 mph 25.9 mph 82% 0.0 in WeatherDisplay:10.37 W/m2 BKN
14:09 -2.6 °F -5.1 °F 1005.3 in WNW 6.9 mph 14.8 mph 83% 0.0 in WeatherDisplay:10.37 W/m2 BKN
14:14 -2.6 °F -5.2 °F 1005.3 in NW 9.2 mph 18.5 mph 82% 0.0 in WeatherDisplay:10.37 W/m2 BKN
14:20 -2.4 °F -4.9 °F 1005.3 in NNW 8.7 mph 16.1 mph 83% 0.0 in WeatherDisplay:10.37 W/m2 BKN
14:25 -2.4 °F -5.1 °F 1005.3 in Calm   3.7 mph 82% 0.0 in WeatherDisplay:10.37 W/m2 BKN
14:30 -2.3 °F -5.2 °F 1005.3 in NNW 7.1 mph 16.7 mph 81% 0.0 in WeatherDisplay:10.37 W/m2 BKN
14:35 -2.3 °F -4.9 °F 1005.3 in NNW 7.9 mph 19.3 mph 82% 0.0 in WeatherDisplay:10.37 W/m2 BKN
14:40 -2.3 °F -5.2 °F 1005.3 in WNW 5.1 mph 16.7 mph 81% 0.0 in WeatherDisplay:10.37 W/m2 BKN
14:45 -2.2 °F -5.1 °F 1005.3 in NNW 13.4 mph 22.2 mph 81% 0.0 in WeatherDisplay:10.37 W/m2 BKN
14:50 -2.2 °F -5.1 °F 1005.6 in NNW 5.5 mph 13.0 mph 81% 0.0 in WeatherDisplay:10.37 W/m2 BKN
14:55 -2.2 °F -5.0 °F 1005.6 in NW 13.4 mph 19.3 mph 81% 0.0 in WeatherDisplay:10.37 W/m2 BKN
15:00 -2.2 °F -5.0 °F 1005.6 in NW 6.9 mph 20.4 mph 81% 0.0 in WeatherDisplay:10.37 W/m2 BKN
15:05 -2.2 °F -5.1 °F 1006.0 in NNW 8.5 mph 16.1 mph 81% 0.0 in WeatherDisplay:10.37 W/m2 BKN
15:11 -2.2 °F -5.1 °F 1006.0 in NW 9.7 mph 20.4 mph 81% 0.0 in WeatherDisplay:10.37 W/m2 BKN
15:16 -2.2 °F -5.1 °F 1006.0 in NNW 10.0 mph 18.5 mph 81% 0.0 in WeatherDisplay:10.37 W/m2 BKN
15:21 -2.2 °F -4.8 °F 1006.0 in WNW 5.5 mph 14.5 mph 82% 0.0 in WeatherDisplay:10.37 W/m2 BKN
15:26 -2.2 °F -5.1 °F 1006.3 in West 8.4 mph 16.7 mph 81% 0.0 in WeatherDisplay:10.37 W/m2 BKN
15:31 -2.2 °F -5.1 °F 1006.3 in NNW 7.6 mph 16.7 mph 81% 0.0 in WeatherDisplay:10.37 W/m2 BKN
15:36 -2.2 °F -5.1 °F 1006.3 in NW 9.5 mph 18.5 mph 81% 0.0 in WeatherDisplay:10.37 W/m2 BKN
15:41 -2.2 °F -5.0 °F 1006.3 in NNW 7.1 mph 16.1 mph 81% 0.0 in WeatherDisplay:10.37 W/m2 BKN
15:46 -2.2 °F -4.8 °F 1006.3 in NW 10.3 mph 18.5 mph 82% 0.0 in WeatherDisplay:10.37 W/m2 BKN
15:51 -2.2 °F -4.9 °F 1006.7 in West 4.2 mph 8.0 mph 82% 0.0 in WeatherDisplay:10.37 W/m2 BKN
15:56 -2.2 °F -5.1 °F 1006.7 in North 5.6 mph 14.8 mph 81% 0.0 in WeatherDisplay:10.37 W/m2 BKN
16:02 -2.2 °F -5.1 °F 1006.7 in North 17.5 mph 22.2 mph 81% 0.0 in WeatherDisplay:10.37 W/m2 BKN
16:07 -2.3 °F -5.1 °F 1006.7 in North 6.4 mph 14.8 mph 81% 0.0 in WeatherDisplay:10.37 W/m2 BKN
16:12 -2.4 °F -5.2 °F 1006.7 in NNW 5.8 mph 13.0 mph 81% 0.0 in WeatherDisplay:10.37 W/m2 BKN
16:17 -2.4 °F -5.2 °F 1006.7 in NNW 6.1 mph 9.7 mph 81% 0.0 in WeatherDisplay:10.37 W/m2 BKN
16:22 -2.3 °F -5.0 °F 1006.7 in NW 4.3 mph 7.4 mph 82% 0.0 in WeatherDisplay:10.37 W/m2 BKN
16:27 -2.3 °F -5.0 °F 1007.0 in NNW 7.1 mph 14.8 mph 82% 0.0 in WeatherDisplay:10.37 W/m2 BKN
16:32 -2.2 °F -4.7 °F 1007.0 in NW 7.6 mph 18.5 mph 83% 0.0 in WeatherDisplay:10.37 W/m2 BKN
16:37 -2.2 °F -5.1 °F 1007.0 in NNW 7.1 mph 16.7 mph 81% 0.0 in WeatherDisplay:10.37 W/m2 BKN
16:42 -2.3 °F -5.1 °F 1007.3 in NNW 10.9 mph 17.7 mph 81% 0.0 in WeatherDisplay:10.37 W/m2 BKN
16:47 -2.3 °F -5.3 °F 1007.3 in NNE 10.8 mph 18.5 mph 80% 0.0 in WeatherDisplay:10.37 W/m2 BKN
16:52 -2.3 °F -5.2 °F 1007.3 in NW 10.6 mph 16.1 mph 81% 0.0 in WeatherDisplay:10.37 W/m2 BKN
16:58 -2.4 °F -5.4 °F 1007.3 in NNW 9.2 mph 18.5 mph 80% 0.0 in WeatherDisplay:10.37 W/m2 BKN
17:03 -2.4 °F -5.4 °F 1007.7 in WNW 5.5 mph 14.5 mph 80% 0.0 in WeatherDisplay:10.37 W/m2 BKN
17:08 -2.5 °F -5.5 °F 1007.7 in WNW 6.9 mph 16.7 mph 80% 0.0 in WeatherDisplay:10.37 W/m2 BKN
17:13 -2.6 °F -5.6 °F 1007.7 in NNW 7.1 mph 13.0 mph 80% 0.0 in WeatherDisplay:10.37 W/m2 BKN
17:18 -2.7 °F -6.0 °F 1007.7 in NNW 4.8 mph 8.0 mph 78% 0.0 in WeatherDisplay:10.37 W/m2 BKN
17:23 -2.7 °F -6.0 °F 1007.7 in NW 6.4 mph 11.1 mph 78% 0.0 in WeatherDisplay:10.37 W/m2 BKN
17:28 -2.7 °F -6.0 °F 1008.0 in NNW 7.7 mph 16.7 mph 78% 0.0 in WeatherDisplay:10.37 W/m2 BKN
17:33 -2.7 °F -5.8 °F 1008.0 in NW 6.9 mph 16.7 mph 79% 0.0 in WeatherDisplay:10.37 W/m2 BKN
17:38 -2.8 °F -5.7 °F 1008.0 in NNW 2.9 mph 7.4 mph 80% 0.0 in WeatherDisplay:10.37 W/m2 BKN
17:44 -2.8 °F -5.5 °F 1008.0 in NNW 7.6 mph 14.8 mph 82% 0.0 in WeatherDisplay:10.37 W/m2 BKN
17:49 -2.9 °F -5.4 °F 1008.4 in NW 4.0 mph 8.0 mph 83% 0.0 in WeatherDisplay:10.37 W/m2 BKN
17:54 -2.9 °F -5.4 °F 1008.4 in NW 5.5 mph 16.7 mph 83% 0.0 in WeatherDisplay:10.37 W/m2 BKN
17:59 -3.0 °F -5.5 °F 1008.4 in WNW 4.2 mph 8.0 mph 83% 0.0 in WeatherDisplay:10.37 W/m2 BKN
18:04 -2.9 °F -5.4 °F 1008.4 in West 7.7 mph 24.1 mph 83% 0.0 in WeatherDisplay:10.37 W/m2 BKN
18:09 -3.0 °F -5.7 °F 1008.7 in NW 11.7 mph 22.2 mph 82% 0.0 in WeatherDisplay:10.37 W/m2 BKN
18:14 -3.0 °F -5.7 °F 1008.7 in North 5.6 mph 13.0 mph 82% 0.0 in WeatherDisplay:10.37 W/m2 BKN
18:19 -3.0 °F -5.7 °F 1009.0 in NW 3.1 mph 11.3 mph 82% 0.0 in WeatherDisplay:10.37 W/m2 BKN
18:24 -3.1 °F -5.7 °F 1009.0 in NNW 6.4 mph 14.8 mph 82% 0.0 in WeatherDisplay:10.37 W/m2 BKN
18:29 -3.1 °F -5.7 °F 1009.0 in NW 8.7 mph 17.7 mph 82% 0.0 in WeatherDisplay:10.37 W/m2 BKN
18:34 -3.2 °F -5.7 °F 1009.4 in NW 7.4 mph 16.7 mph 83% 0.0 in WeatherDisplay:10.37 W/m2 BKN
18:40 -3.2 °F -5.7 °F 1009.4 in WNW 7.1 mph 22.2 mph 83% 0.0 in WeatherDisplay:10.37 W/m2 BKN
18:45 -3.3 °F -5.8 °F 1009.7 in NNW 9.7 mph 31.5 mph 83% 0.0 in WeatherDisplay:10.37 W/m2 BKN
18:50 -3.4 °F -5.9 °F 1009.7 in WNW 6.6 mph 13.0 mph 83% 0.0 in WeatherDisplay:10.37 W/m2 BKN
18:55 -3.4 °F -5.8 °F 1009.7 in NNW 7.6 mph 20.4 mph 84% 0.0 in WeatherDisplay:10.37 W/m2 BKN
19:00 -3.5 °F -5.7 °F 1009.7 in NNW 5.6 mph 8.0 mph 85% 0.0 in WeatherDisplay:10.37 W/m2 BKN
19:05 -3.5 °F -5.7 °F 1010.0 in NNW 7.1 mph 13.0 mph 85% 0.0 in WeatherDisplay:10.37 W/m2 -SN
19:10 -3.6 °F -5.9 °F 1010.0 in North 9.2 mph 17.7 mph 84% 0.0 in WeatherDisplay:10.37 W/m2 -SN
19:15 -3.7 °F -6.1 °F 1010.0 in NW 12.1 mph 29.0 mph 83% 0.0 in WeatherDisplay:10.37 W/m2 -SN
19:20 -3.8 °F -6.7 °F 1010.4 in WNW 9.2 mph 16.7 mph 80% 0.0 in WeatherDisplay:10.37 W/m2 -SN
19:25 -3.8 °F -6.8 °F 1010.4 in NNW 10.3 mph 18.5 mph 80% 0.0 in WeatherDisplay:10.37 W/m2 -SN
19:30 -3.9 °F -6.9 °F 1010.4 in NNW 9.0 mph 16.1 mph 80% 0.0 in WeatherDisplay:10.37 W/m2 -SN
19:36 -4.0 °F -6.9 °F 1010.4 in NW 9.0 mph 14.5 mph 80% 0.0 in WeatherDisplay:10.37 W/m2 -SN
19:41 -4.1 °F -7.2 °F 1010.7 in NW 12.1 mph 24.1 mph 79% 0.0 in WeatherDisplay:10.37 W/m2 -SN
19:46 -4.2 °F -7.6 °F 1010.7 in NW 9.8 mph 18.5 mph 77% 0.0 in WeatherDisplay:10.37 W/m2 -SN
19:51 -4.2 °F -7.5 °F 1010.7 in NNW 8.0 mph 12.9 mph 78% 0.0 in WeatherDisplay:10.37 W/m2 -SN
19:56 -4.3 °F -7.6 °F 1011.1 in NNE 12.2 mph 18.5 mph 78% 0.0 in WeatherDisplay:10.37 W/m2 -SN
20:01 -4.3 °F -7.4 °F 1011.1 in NNW 12.7 mph 25.9 mph 79% 0.0 in WeatherDisplay:10.37 W/m2 -SN
20:06 -4.4 °F -7.7 °F 1011.1 in NW 10.9 mph 18.5 mph 78% 0.0 in WeatherDisplay:10.37 W/m2 -SN
20:11 -4.6 °F -7.8 °F 1011.1 in NNW 6.3 mph 13.0 mph 78% 0.0 in WeatherDisplay:10.37 W/m2 -SN
20:16 -4.7 °F -7.8 °F 1011.1 in NNW 5.3 mph 12.9 mph 79% 0.0 in WeatherDisplay:10.37 W/m2 -SN
20:21 -4.7 °F -7.8 °F 1011.1 in North 3.2 mph 9.3 mph 79% 0.0 in WeatherDisplay:10.37 W/m2 -SN
20:26 -4.8 °F -7.7 °F 1011.4 in NNW 5.1 mph 18.5 mph 80% 0.0 in WeatherDisplay:10.37 W/m2 -SN
20:31 -4.8 °F -7.8 °F 1011.1 in WNW 5.6 mph 18.5 mph 80% 0.0 in WeatherDisplay:10.37 W/m2 -SN
20:37 -4.9 °F -7.8 °F 1011.1 in NNW 10.3 mph 17.7 mph 80% 0.0 in WeatherDisplay:10.37 W/m2 -SN
20:42 -4.9 °F -7.9 °F 1011.4 in NNW 7.1 mph 14.8 mph 79% 0.0 in WeatherDisplay:10.37 W/m2 -SN
20:47 -4.9 °F -7.9 °F 1011.4 in NNW 14.0 mph 19.3 mph 80% 0.0 in WeatherDisplay:10.37 W/m2 -SN
20:52 -4.9 °F -7.8 °F 1011.4 in NW 7.9 mph 14.8 mph 80% 0.0 in WeatherDisplay:10.37 W/m2 -SN
20:57 -4.9 °F -7.8 °F 1011.4 in NNW 6.1 mph 13.0 mph 80% 0.0 in WeatherDisplay:10.37 W/m2 -SN
21:02 -4.9 °F -7.7 °F 1011.4 in NNW 13.4 mph 29.0 mph 81% 0.0 in WeatherDisplay:10.37 W/m2 SCT
21:07 -4.9 °F -7.7 °F 1011.7 in NNW 11.4 mph 27.4 mph 81% 0.0 in WeatherDisplay:10.37 W/m2 SCT
21:12 -5.0 °F -7.9 °F 1011.7 in West 10.0 mph 18.5 mph 80% 0.0 in WeatherDisplay:10.37 W/m2 SCT
21:17 -5.1 °F -7.8 °F 1012.1 in NNW 5.6 mph 9.7 mph 81% 0.0 in WeatherDisplay:10.37 W/m2 SCT
21:22 -5.2 °F -7.9 °F 1012.1 in West 8.2 mph 20.4 mph 81% 0.0 in WeatherDisplay:10.37 W/m2 SCT
21:27 -5.2 °F -8.0 °F 1012.1 in North 11.1 mph 14.8 mph 81% 0.0 in WeatherDisplay:10.37 W/m2 SCT
21:32 -5.3 °F -8.1 °F 1012.1 in NW 3.1 mph 16.7 mph 81% 0.0 in WeatherDisplay:10.37 W/m2 FEW
21:38 -5.3 °F -7.9 °F 1012.1 in NW 6.8 mph 13.0 mph 82% 0.0 in WeatherDisplay:10.37 W/m2 FEW
21:43 -5.4 °F -8.1 °F 1012.1 in NNW 5.6 mph 14.5 mph 82% 0.0 in WeatherDisplay:10.37 W/m2 FEW
21:48 -5.6 °F -8.2 °F 1012.4 in WNW 4.3 mph 14.8 mph 82% 0.0 in WeatherDisplay:10.37 W/m2 FEW
21:53 -5.7 °F -8.1 °F 1012.4 in NNW 3.7 mph 9.7 mph 83% 0.0 in WeatherDisplay:10.37 W/m2 FEW
21:58 -5.7 °F -8.2 °F 1012.4 in NNW 5.5 mph 8.0 mph 83% 0.0 in WeatherDisplay:10.37 W/m2 FEW
22:03 -5.8 °F -8.3 °F 1012.4 in NW 3.4 mph 5.6 mph 83% 0.0 in WeatherDisplay:10.37 W/m2 FEW
22:08 -5.9 °F -8.2 °F 1012.4 in NNW 6.4 mph 16.1 mph 84% 0.0 in WeatherDisplay:10.37 W/m2 FEW
22:13 -5.9 °F -8.2 °F 1012.8 in NNW 8.2 mph 18.5 mph 84% 0.0 in WeatherDisplay:10.37 W/m2 FEW
22:18 -6.0 °F -8.3 °F 1012.8 in NNW 7.9 mph 14.8 mph 84% 0.0 in WeatherDisplay:10.37 W/m2 FEW
22:23 -6.1 °F -8.2 °F 1012.8 in NNW 6.6 mph 14.8 mph 85% 0.0 in WeatherDisplay:10.37 W/m2 FEW
22:28 -6.2 °F -8.3 °F 1012.8 in NNW 6.3 mph 13.0 mph 85% 0.0 in WeatherDisplay:10.37 W/m2 FEW
22:33 -6.2 °F -8.3 °F 1012.8 in NW 6.6 mph 14.8 mph 85% 0.0 in WeatherDisplay:10.37 W/m2 FEW
22:39 -6.3 °F -8.4 °F 1012.8 in NW 3.7 mph 12.9 mph 85% 0.0 in WeatherDisplay:10.37 W/m2 FEW
22:44 -6.3 °F -8.3 °F 1012.8 in NW 13.2 mph 20.4 mph 86% 0.0 in WeatherDisplay:10.37 W/m2 FEW
22:49 -6.4 °F -8.3 °F 1012.8 in NNW 10.6 mph 16.7 mph 86% 0.0 in WeatherDisplay:10.37 W/m2 FEW
22:54 -6.4 °F -8.4 °F 1013.1 in NW 7.7 mph 16.7 mph 86% 0.0 in WeatherDisplay:10.37 W/m2 FEW
22:59 -6.4 °F -8.4 °F 1013.1 in NNW 3.7 mph 7.4 mph 86% 0.0 in WeatherDisplay:10.37 W/m2 FEW
23:04 -6.5 °F -8.4 °F 1013.1 in NNW 0.8 mph 5.6 mph 86% 0.0 in WeatherDisplay:10.37 W/m2 FEW
23:09 -6.6 °F -8.5 °F 1013.1 in NNW 10.8 mph 14.5 mph 86% 0.0 in WeatherDisplay:10.37 W/m2 FEW
23:14 -6.6 °F -8.5 °F 1013.1 in NNW 4.8 mph 8.0 mph 86% 0.0 in WeatherDisplay:10.37 W/m2 FEW
23:19 -6.7 °F -8.4 °F 1013.4 in NNW 4.5 mph 13.0 mph 87% 0.0 in WeatherDisplay:10.37 W/m2 FEW
23:24 -6.7 °F -8.5 °F 1013.4 in NNW 5.5 mph 13.0 mph 87% 0.0 in WeatherDisplay:10.37 W/m2 FEW
23:30 -6.8 °F -8.6 °F 1013.4 in NNW 1.8 mph 8.0 mph 87% 0.0 in WeatherDisplay:10.37 W/m2 FEW
23:35 -6.8 °F -8.6 °F 1013.4 in NNW 8.7 mph 16.7 mph 87% 0.0 in WeatherDisplay:10.37 W/m2 FEW
23:40 -6.9 °F -8.7 °F 1013.4 in NNW 6.3 mph 9.7 mph 87% 0.0 in WeatherDisplay:10.37 W/m2 FEW
23:45 -6.9 °F -8.7 °F 1013.4 in NNW 5.6 mph 9.7 mph 87% 0.0 in WeatherDisplay:10.37 W/m2 FEW
23:50 -7.1 °F -8.8 °F 1013.4 in NNW 4.8 mph 18.5 mph 87% 0.0 in WeatherDisplay:10.37 W/m2 FEW
23:55 -7.1 °F -8.7 °F 1013.4 in NNW 3.2 mph 7.4 mph 88% 0.0 in WeatherDisplay:10.37 W/m2 FEW
Tuulensuunkaari, Veikkola, Suomi
Compliments of Weather Underground - 2.5 mb